Time,TemperatureF,DewpointF,PressureIn,WindDirection,WindDirectionDegrees,WindSpeedMPH,WindSpeedGustMPH,Humidity,HourlyPrecipIn,Conditions,Clouds,dailyrainin,SolarRadiationWatts/m^2,SoftwareType,DateUTC
2013-08-03 00:03:00,82.6,75.7,29.97,East,89,0.0,0.0,80,0.00,,,0.06,0.0,meteohub,2013-08-03 05:03:00,
2013-08-03 00:08:00,82.4,75.6,29.97,East,89,0.0,0.0,80,0.00,,,0.00,0.0,meteohub,2013-08-03 05:08:00,
2013-08-03 00:13:00,82.2,75.4,29.97,East,88,0.0,0.0,80,0.00,,,0.00,0.0,meteohub,2013-08-03 05:13:00,
2013-08-03 00:18:00,82.0,75.2,29.97,East,89,0.0,0.0,80,0.00,,,0.00,0.0,meteohub,2013-08-03 05:18:00,
2013-08-03 00:23:00,82.0,75.2,29.97,East,88,0.0,0.0,80,0.00,,,0.00,0.0,meteohub,2013-08-03 05:23:00,
2013-08-03 00:28:00,81.9,75.0,29.97,East,88,0.0,0.0,80,0.00,,,0.00,0.0,meteohub,2013-08-03 05:28:00,
2013-08-03 00:33:00,81.9,75.4,29.97,East,88,0.0,0.0,81,0.00,,,0.00,0.0,meteohub,2013-08-03 05:33:00,
2013-08-03 00:38:00,81.7,75.2,29.97,East,89,0.0,1.0,81,0.00,,,0.00,0.0,meteohub,2013-08-03 05:38:00,
2013-08-03 00:43:00,81.5,75.0,29.97,East,89,0.0,1.0,81,0.00,,,0.00,0.0,meteohub,2013-08-03 05:43:00,
2013-08-03 00:48:00,81.3,74.8,29.97,East,89,0.0,1.0,81,0.00,,,0.00,0.0,meteohub,2013-08-03 05:48:00,
2013-08-03 00:53:00,81.3,75.4,29.97,East,88,0.0,1.0,82,0.00,,,0.00,0.0,meteohub,2013-08-03 05:53:00,
2013-08-03 00:58:00,81.1,75.2,29.97,East,89,0.0,0.0,82,0.00,,,0.00,0.0,meteohub,2013-08-03 05:58:00,
2013-08-03 01:03:00,81.1,75.2,29.97,East,88,0.0,0.0,82,0.00,,,0.00,0.0,meteohub,2013-08-03 06:03:00,
2013-08-03 01:08:00,81.0,75.0,29.97,East,89,0.0,0.0,82,0.00,,,0.00,0.0,meteohub,2013-08-03 06:08:00,
2013-08-03 01:13:00,80.8,75.2,29.97,East,89,0.0,0.0,83,0.00,,,0.00,0.0,meteohub,2013-08-03 06:13:00,
2013-08-03 01:18:00,80.8,75.2,29.97,East,89,0.0,0.0,83,0.00,,,0.00,0.0,meteohub,2013-08-03 06:18:00,
2013-08-03 01:23:00,80.4,74.8,29.97,East,89,0.0,0.0,83,0.00,,,0.00,0.0,meteohub,2013-08-03 06:23:00,
2013-08-03 01:28:00,80.4,75.2,29.96,East,89,0.0,0.0,84,0.00,,,0.00,0.0,meteohub,2013-08-03 06:28:00,
2013-08-03 01:33:00,80.2,75.0,29.96,East,89,0.0,0.0,84,0.00,,,0.00,0.0,meteohub,2013-08-03 06:33:00,
2013-08-03 01:38:00,80.1,75.2,29.97,East,89,0.0,0.0,85,0.00,,,0.00,0.0,meteohub,2013-08-03 06:38:00,
2013-08-03 01:43:00,80.1,75.2,29.96,East,89,0.0,0.0,85,0.00,,,0.00,0.0,meteohub,2013-08-03 06:43:00,
2013-08-03 01:48:00,79.9,75.0,29.97,East,88,0.0,0.0,85,0.00,,,0.00,0.0,meteohub,2013-08-03 06:48:00,
2013-08-03 01:53:00,79.7,75.2,29.96,East,89,0.0,0.0,86,0.00,,,0.00,0.0,meteohub,2013-08-03 06:53:00,
2013-08-03 01:58:00,79.5,75.0,29.97,East,89,0.0,0.0,86,0.00,,,0.00,0.0,meteohub,2013-08-03 06:58:00,
2013-08-03 02:04:00,79.3,74.8,29.96,East,88,0.0,0.0,86,0.00,,,0.00,0.0,meteohub,2013-08-03 07:04:00,
2013-08-03 02:08:00,79.2,74.7,29.97,East,89,0.0,0.0,86,0.00,,,0.00,0.0,meteohub,2013-08-03 07:08:00,
2013-08-03 02:13:00,79.2,74.7,29.96,East,89,0.0,0.0,86,0.00,,,0.00,0.0,meteohub,2013-08-03 07:13:00,
2013-08-03 02:19:00,79.0,74.8,29.97,East,89,0.0,0.0,87,0.00,,,0.00,0.0,meteohub,2013-08-03 07:19:00,
2013-08-03 02:24:00,78.8,74.7,29.97,East,89,0.0,0.0,87,0.00,,,0.00,0.0,meteohub,2013-08-03 07:24:00,
2013-08-03 02:29:00,78.6,74.5,29.97,East,89,0.0,0.0,87,0.00,,,0.00,0.0,meteohub,2013-08-03 07:29:00,
2013-08-03 02:34:00,78.6,74.5,29.97,East,89,0.0,0.0,87,0.00,,,0.00,0.0,meteohub,2013-08-03 07:34:00,
2013-08-03 02:39:00,78.6,74.8,29.96,East,89,0.0,0.0,88,0.00,,,0.00,0.0,meteohub,2013-08-03 07:39:00,
2013-08-03 02:44:00,78.4,74.7,29.96,East,88,0.0,0.0,88,0.00,,,0.00,0.0,meteohub,2013-08-03 07:44:00,
2013-08-03 02:48:00,78.3,74.5,29.97,East,89,0.0,0.0,88,0.00,,,0.00,0.0,meteohub,2013-08-03 07:48:00,
2013-08-03 02:54:00,78.3,74.5,29.97,East,89,0.0,0.0,88,0.00,,,0.00,0.0,meteohub,2013-08-03 07:54:00,
2013-08-03 02:59:00,78.1,74.3,29.97,East,88,0.0,0.0,88,0.00,,,0.00,0.0,meteohub,2013-08-03 07:59:00,
2013-08-03 03:04:00,78.1,74.5,29.97,East,89,0.0,0.0,89,0.00,,,0.00,0.0,meteohub,2013-08-03 08:04:00,
2013-08-03 03:09:00,77.9,74.5,29.97,East,88,0.0,0.0,89,0.00,,,0.00,0.0,meteohub,2013-08-03 08:09:00,
2013-08-03 03:14:00,77.7,74.3,29.97,East,89,0.0,0.0,89,0.00,,,0.00,0.0,meteohub,2013-08-03 08:14:00,
2013-08-03 03:19:00,77.7,74.3,29.97,East,89,0.0,0.0,89,0.00,,,0.00,0.0,meteohub,2013-08-03 08:19:00,
2013-08-03 03:24:00,77.5,74.1,29.97,East,88,0.0,1.0,89,0.00,,,0.00,0.0,meteohub,2013-08-03 08:24:00,
2013-08-03 03:29:00,77.5,74.1,29.97,East,88,0.0,1.0,89,0.00,,,0.00,0.0,meteohub,2013-08-03 08:29:00,
2013-08-03 03:34:00,77.4,73.9,29.97,East,89,0.0,2.0,89,0.00,,,0.00,0.0,meteohub,2013-08-03 08:34:00,
2013-08-03 03:39:00,77.4,74.1,29.96,East,89,0.0,2.0,90,0.00,,,0.00,0.0,meteohub,2013-08-03 08:39:00,
2013-08-03 03:44:00,77.4,74.1,29.96,East,88,0.0,2.0,90,0.00,,,0.00,0.0,meteohub,2013-08-03 08:44:00,
2013-08-03 03:49:00,77.2,73.9,29.97,East,89,0.0,0.0,90,0.00,,,0.00,0.0,meteohub,2013-08-03 08:49:00,
2013-08-03 03:54:00,77.2,73.9,29.97,East,88,0.0,0.0,90,0.00,,,0.00,0.0,meteohub,2013-08-03 08:54:00,
2013-08-03 03:59:00,77.2,73.9,29.96,East,88,0.0,0.0,90,0.00,,,0.00,0.0,meteohub,2013-08-03 08:59:00,
2013-08-03 04:04:00,77.0,73.8,29.96,East,89,0.0,0.0,90,0.00,,,0.00,0.0,meteohub,2013-08-03 09:04:00,
2013-08-03 04:09:00,76.8,73.6,29.97,East,89,0.0,0.0,90,0.00,,,0.00,0.0,meteohub,2013-08-03 09:09:00,
2013-08-03 04:14:00,76.8,73.6,29.97,East,89,0.0,0.0,90,0.00,,,0.00,0.0,meteohub,2013-08-03 09:14:00,
2013-08-03 04:19:00,76.6,73.4,29.97,East,89,0.0,0.0,90,0.00,,,0.00,0.0,meteohub,2013-08-03 09:19:00,
2013-08-03 04:24:00,76.6,73.8,29.97,East,89,0.0,0.0,91,0.00,,,0.00,0.0,meteohub,2013-08-03 09:24:00,
2013-08-03 04:29:00,76.6,73.8,29.97,East,89,0.0,0.0,91,0.00,,,0.00,0.0,meteohub,2013-08-03 09:29:00,
2013-08-03 04:34:00,76.5,73.6,29.97,East,89,0.0,0.0,91,0.00,,,0.00,0.0,meteohub,2013-08-03 09:34:00,
2013-08-03 04:39:00,76.5,73.6,29.97,East,89,0.0,0.0,91,0.00,,,0.00,0.0,meteohub,2013-08-03 09:39:00,
2013-08-03 04:44:00,76.5,73.6,29.97,East,88,0.0,0.0,91,0.00,,,0.00,0.0,meteohub,2013-08-03 09:44:00,
2013-08-03 04:49:00,76.3,73.4,29.97,East,89,0.0,0.0,91,0.00,,,0.00,0.0,meteohub,2013-08-03 09:49:00,
2013-08-03 04:54:00,76.3,73.4,29.97,East,89,0.0,0.0,91,0.00,,,0.00,0.0,meteohub,2013-08-03 09:54:00,
2013-08-03 05:01:00,76.1,73.2,29.96,East,88,0.0,0.0,91,0.00,,,0.00,0.0,meteohub,2013-08-03 10:01:00,
2013-08-03 05:06:00,75.9,73.0,29.97,East,88,0.0,0.0,91,0.00,,,0.00,0.0,meteohub,2013-08-03 10:06:00,
2013-08-03 05:12:00,75.9,73.0,29.97,East,89,0.0,0.0,91,0.00,,,0.00,0.0,meteohub,2013-08-03 10:12:00,
2013-08-03 05:17:00,75.9,73.0,29.97,East,88,0.0,0.0,91,0.00,,,0.00,0.0,meteohub,2013-08-03 10:17:00,
2013-08-03 05:22:00,75.7,73.2,29.97,East,88,0.0,0.0,92,0.00,,,0.00,0.0,meteohub,2013-08-03 10:22:00,
2013-08-03 05:27:00,75.7,73.2,29.97,East,88,0.0,0.0,92,0.00,,,0.00,0.0,meteohub,2013-08-03 10:27:00,
2013-08-03 05:32:00,75.7,73.2,29.97,East,89,0.0,0.0,92,0.00,,,0.00,0.0,meteohub,2013-08-03 10:32:00,
2013-08-03 05:37:00,75.6,73.0,29.97,East,89,0.0,0.0,92,0.00,,,0.00,0.0,meteohub,2013-08-03 10:37:00,
2013-08-03 05:42:00,75.6,72.7,29.97,East,88,0.0,0.0,91,0.00,,,0.00,0.0,meteohub,2013-08-03 10:42:00,
2013-08-03 05:47:00,75.4,72.9,29.98,East,89,0.0,0.0,92,0.00,,,0.00,0.0,meteohub,2013-08-03 10:47:00,
2013-08-03 05:52:00,75.4,72.9,29.98,East,89,0.0,0.0,92,0.00,,,0.00,0.0,meteohub,2013-08-03 10:52:00,
2013-08-03 05:57:00,75.4,72.9,29.98,East,89,0.0,0.0,92,0.00,,,0.00,0.0,meteohub,2013-08-03 10:57:00,
2013-08-03 06:02:00,75.4,72.9,29.98,East,89,0.0,0.0,92,0.00,,,0.00,0.0,meteohub,2013-08-03 11:02:00,
2013-08-03 06:07:00,75.2,72.7,29.98,East,88,0.0,0.0,92,0.00,,,0.00,0.0,meteohub,2013-08-03 11:07:00,
2013-08-03 06:12:00,75.0,72.5,29.98,East,88,0.0,0.0,92,0.00,,,0.00,0.0,meteohub,2013-08-03 11:12:00,
2013-08-03 06:17:00,75.0,72.5,29.99,East,89,0.0,0.0,92,0.00,,,0.00,0.0,meteohub,2013-08-03 11:17:00,
2013-08-03 06:22:00,75.0,72.5,29.99,East,89,0.0,0.0,92,0.00,,,0.00,0.0,meteohub,2013-08-03 11:22:00,
2013-08-03 06:27:00,75.0,72.5,29.99,East,88,0.0,0.0,92,0.00,,,0.00,0.0,meteohub,2013-08-03 11:27:00,
2013-08-03 06:32:00,74.8,72.3,29.99,East,89,0.0,0.0,92,0.00,,,0.00,0.0,meteohub,2013-08-03 11:32:00,
2013-08-03 06:37:00,74.8,72.3,29.99,East,88,0.0,0.0,92,0.00,,,0.00,5.0,meteohub,2013-08-03 11:37:00,
2013-08-03 06:42:00,74.8,72.3,29.99,East,88,0.0,0.0,92,0.00,,,0.00,7.0,meteohub,2013-08-03 11:42:00,
2013-08-03 06:47:00,74.8,72.3,29.99,East,89,0.0,0.0,92,0.00,,,0.00,11.0,meteohub,2013-08-03 11:47:00,
2013-08-03 06:52:00,74.7,72.1,29.99,East,89,0.0,0.0,92,0.00,,,0.00,18.0,meteohub,2013-08-03 11:52:00,
2013-08-03 06:57:00,74.7,72.1,29.99,East,89,0.0,0.0,92,0.00,,,0.00,25.0,meteohub,2013-08-03 11:57:00,
2013-08-03 07:02:00,74.8,72.7,29.99,East,88,0.0,0.0,93,0.00,,,0.00,30.0,meteohub,2013-08-03 12:02:00,
2013-08-03 07:07:00,74.8,72.7,29.99,East,89,0.0,0.0,93,0.00,,,0.00,33.0,meteohub,2013-08-03 12:07:00,
2013-08-03 07:12:00,74.8,72.7,29.99,East,88,0.0,0.0,93,0.00,,,0.00,39.0,meteohub,2013-08-03 12:12:00,
2013-08-03 07:17:00,74.8,72.7,30.00,East,89,0.0,0.0,93,0.00,,,0.00,42.0,meteohub,2013-08-03 12:17:00,
2013-08-03 07:22:00,75.0,72.9,30.00,ESE,114,0.0,0.0,93,0.00,,,0.00,47.0,meteohub,2013-08-03 12:22:00,
2013-08-03 07:27:00,75.0,72.9,30.00,ESE,114,0.0,0.0,93,0.00,,,0.00,51.0,meteohub,2013-08-03 12:27:00,
2013-08-03 07:32:00,75.2,73.0,30.00,ESE,114,0.0,0.0,93,0.00,,,0.00,54.0,meteohub,2013-08-03 12:32:00,
2013-08-03 07:37:00,75.6,73.8,30.00,ESE,114,0.0,0.0,94,0.00,,,0.00,58.0,meteohub,2013-08-03 12:37:00,
2013-08-03 07:42:00,75.7,73.9,30.00,ESE,114,0.0,0.0,94,0.00,,,0.00,67.0,meteohub,2013-08-03 12:42:00,
2013-08-03 07:47:00,75.9,74.1,30.01,ESE,114,0.0,0.0,94,0.00,,,0.00,105.0,meteohub,2013-08-03 12:47:00,
2013-08-03 07:52:00,76.3,74.5,30.00,ESE,114,0.0,0.0,94,0.00,,,0.00,91.0,meteohub,2013-08-03 12:52:00,
2013-08-03 07:57:00,76.6,74.8,30.00,ESE,114,0.0,0.0,94,0.00,,,0.00,165.0,meteohub,2013-08-03 12:57:00,
2013-08-03 08:02:00,77.4,75.2,30.00,ESE,114,0.0,0.0,93,0.00,,,0.00,181.0,meteohub,2013-08-03 13:02:00,
2013-08-03 08:07:00,77.5,75.4,30.01,ESE,114,0.0,0.0,93,0.00,,,0.00,197.0,meteohub,2013-08-03 13:07:00,
2013-08-03 08:12:00,77.9,75.4,30.01,ESE,114,0.0,0.0,92,0.00,,,0.00,183.0,meteohub,2013-08-03 13:12:00,
2013-08-03 08:17:00,78.3,75.4,30.01,ESE,115,0.0,0.0,91,0.00,,,0.00,197.0,meteohub,2013-08-03 13:17:00,
2013-08-03 08:22:00,78.4,75.6,30.01,ESE,119,0.0,0.0,91,0.00,,,0.00,218.0,meteohub,2013-08-03 13:22:00,
2013-08-03 08:28:00,78.6,75.4,30.01,ESE,119,0.0,1.0,90,0.00,,,0.00,230.0,meteohub,2013-08-03 13:28:00,
2013-08-03 08:33:00,79.2,75.9,30.01,SE,129,0.0,1.0,90,0.00,,,0.00,241.0,meteohub,2013-08-03 13:33:00,
2013-08-03 08:38:00,79.5,75.9,30.01,SSW,200,0.0,6.0,89,0.00,,,0.00,239.0,meteohub,2013-08-03 13:38:00,
2013-08-03 08:43:00,80.2,76.3,30.01,SSW,200,0.0,6.0,88,0.00,,,0.00,267.0,meteohub,2013-08-03 13:43:00,
2013-08-03 08:48:00,80.6,76.6,30.01,SSW,200,0.0,6.0,88,0.00,,,0.00,292.0,meteohub,2013-08-03 13:48:00,
2013-08-03 08:53:00,81.5,77.2,30.02,SSW,200,0.0,3.0,87,0.00,,,0.00,306.0,meteohub,2013-08-03 13:53:00,
2013-08-03 08:58:00,82.0,77.7,30.02,SSW,200,0.0,3.0,87,0.00,,,0.00,325.0,meteohub,2013-08-03 13:58:00,
2013-08-03 09:03:00,82.4,77.7,30.02,SSW,200,0.0,1.0,86,0.00,,,0.00,353.0,meteohub,2013-08-03 14:03:00,
2013-08-03 09:08:00,82.6,77.5,30.02,SSW,200,0.0,1.0,85,0.00,,,0.00,336.0,meteohub,2013-08-03 14:08:00,
2013-08-03 09:13:00,82.8,77.4,30.03,SSW,208,0.0,4.0,84,0.00,,,0.00,390.0,meteohub,2013-08-03 14:13:00,
2013-08-03 09:18:00,82.9,77.5,30.03,SSW,206,0.0,7.0,84,0.00,,,0.00,355.0,meteohub,2013-08-03 14:18:00,
2013-08-03 09:23:00,83.1,77.7,30.03,SSW,204,0.0,7.0,84,0.00,,,0.00,223.0,meteohub,2013-08-03 14:23:00,
2013-08-03 09:28:00,83.3,77.5,30.03,SSW,200,0.0,7.0,83,0.00,,,0.00,445.0,meteohub,2013-08-03 14:28:00,
2013-08-03 09:33:00,83.3,77.5,30.03,SSW,199,0.0,5.0,83,0.00,,,0.00,163.0,meteohub,2013-08-03 14:33:00,
2013-08-03 09:38:00,83.7,78.3,30.03,SSW,200,0.0,4.0,84,0.00,,,0.00,468.0,meteohub,2013-08-03 14:38:00,
2013-08-03 09:43:00,83.8,77.7,30.03,SSW,200,0.0,1.0,82,0.00,,,0.00,357.0,meteohub,2013-08-03 14:43:00,
2013-08-03 09:48:00,84.4,78.3,30.03,SSW,200,0.0,1.0,82,0.00,,,0.00,236.0,meteohub,2013-08-03 14:48:00,
2013-08-03 09:53:00,84.6,78.4,30.04,SSW,200,0.0,1.0,82,0.00,,,0.00,469.0,meteohub,2013-08-03 14:53:00,
2013-08-03 09:58:00,84.7,78.3,30.04,SSW,199,0.0,1.0,81,0.00,,,0.00,475.0,meteohub,2013-08-03 14:58:00,
2013-08-03 10:03:00,85.3,78.4,30.04,SSW,200,0.0,1.0,80,0.00,,,0.00,485.0,meteohub,2013-08-03 15:03:00,
2013-08-03 10:08:00,84.9,78.1,30.04,North,3,0.0,1.0,80,0.00,,,0.00,515.0,meteohub,2013-08-03 15:08:00,
2013-08-03 10:13:00,84.9,77.7,30.04,NW,308,0.0,7.0,79,0.00,,,0.00,211.0,meteohub,2013-08-03 15:13:00,
2013-08-03 10:18:00,84.6,77.4,30.04,SW,218,0.0,7.0,79,0.00,,,0.00,229.0,meteohub,2013-08-03 15:18:00,
2013-08-03 10:23:00,84.9,78.1,30.05,SW,218,0.0,5.0,80,0.00,,,0.00,534.0,meteohub,2013-08-03 15:23:00,
2013-08-03 10:28:00,85.3,78.4,30.05,SW,218,0.0,5.0,80,0.00,,,0.00,497.0,meteohub,2013-08-03 15:28:00,
2013-08-03 10:33:00,85.6,78.8,30.05,SW,218,0.0,5.0,80,0.00,,,0.00,524.0,meteohub,2013-08-03 15:33:00,
2013-08-03 10:38:00,85.5,77.7,30.04,SSW,204,0.0,2.0,78,0.00,,,0.00,541.0,meteohub,2013-08-03 15:38:00,
2013-08-03 10:43:00,86.0,78.3,30.04,SSW,204,0.0,7.0,78,0.00,,,0.00,601.0,meteohub,2013-08-03 15:43:00,
2013-08-03 10:48:00,87.1,79.0,30.04,SSW,204,0.0,7.0,77,0.00,,,0.00,626.0,meteohub,2013-08-03 15:48:00,
2013-08-03 10:53:00,87.4,78.6,30.04,SSW,204,0.0,7.0,75,0.00,,,0.00,659.0,meteohub,2013-08-03 15:53:00,
2013-08-03 10:58:00,86.5,77.7,30.04,SSW,206,0.0,1.0,75,0.00,,,0.00,248.0,meteohub,2013-08-03 15:58:00,
2013-08-03 11:03:00,85.8,77.4,30.04,SSW,206,0.0,6.0,76,0.00,,,0.00,830.0,meteohub,2013-08-03 16:03:00,
2013-08-03 11:08:00,86.5,78.8,30.04,SSW,206,0.0,6.0,78,0.00,,,0.00,362.0,meteohub,2013-08-03 16:08:00,
2013-08-03 11:13:00,86.2,77.4,30.04,SSW,206,0.0,6.0,75,0.00,,,0.00,214.0,meteohub,2013-08-03 16:13:00,
2013-08-03 11:18:00,86.7,78.3,30.04,SSW,206,0.0,1.0,76,0.00,,,0.00,831.0,meteohub,2013-08-03 16:18:00,
2013-08-03 11:23:00,87.6,77.5,30.04,SSW,198,0.0,1.0,72,0.00,,,0.00,935.0,meteohub,2013-08-03 16:23:00,
2013-08-03 11:29:00,88.2,78.4,30.04,SSW,198,0.0,1.0,73,0.00,,,0.00,309.0,meteohub,2013-08-03 16:29:00,
2013-08-03 11:34:00,87.8,78.1,30.04,SSE,165,0.0,1.0,73,0.00,,,0.00,911.0,meteohub,2013-08-03 16:34:00,
2013-08-03 11:39:00,87.8,77.7,30.04,SSE,166,0.0,1.0,72,0.00,,,0.00,947.0,meteohub,2013-08-03 16:39:00,
2013-08-03 11:44:00,88.0,77.0,30.03,SSE,150,0.0,0.0,70,0.00,,,0.00,399.0,meteohub,2013-08-03 16:44:00,
2013-08-03 11:49:00,88.3,78.1,30.03,SSE,151,0.0,0.0,72,0.00,,,0.00,819.0,meteohub,2013-08-03 16:49:00,
2013-08-03 11:54:00,88.5,77.0,30.03,SSE,150,0.0,0.0,69,0.00,,,0.00,742.0,meteohub,2013-08-03 16:54:00,
2013-08-03 11:59:00,88.7,78.1,30.04,SE,139,0.0,0.0,71,0.00,,,0.00,840.0,meteohub,2013-08-03 16:59:00,
2013-08-03 12:04:00,88.7,77.2,30.04,East,89,0.0,0.0,69,0.00,,,0.00,912.0,meteohub,2013-08-03 17:04:00,
2013-08-03 12:09:00,88.7,78.1,30.04,South,190,2.0,0.0,71,0.00,,,0.00,902.0,meteohub,2013-08-03 17:09:00,
2013-08-03 12:14:00,88.2,77.9,30.04,SSW,206,0.0,3.0,72,0.00,,,0.00,330.0,meteohub,2013-08-03 17:14:00,
2013-08-03 12:19:00,88.0,78.3,30.04,SSW,206,0.0,3.0,73,0.00,,,0.00,782.0,meteohub,2013-08-03 17:19:00,
2013-08-03 12:24:00,88.5,78.3,30.04,SSW,206,0.0,3.0,72,0.00,,,0.00,926.0,meteohub,2013-08-03 17:24:00,
2013-08-03 12:29:00,89.1,77.2,30.03,SSW,206,0.0,1.0,68,0.00,,,0.00,243.0,meteohub,2013-08-03 17:29:00,
2013-08-03 12:34:00,88.9,77.4,30.03,SSW,206,0.0,0.0,69,0.00,,,0.00,443.0,meteohub,2013-08-03 17:34:00,
2013-08-03 12:39:00,89.8,77.7,30.03,SSW,206,0.0,1.0,68,0.00,,,0.00,970.0,meteohub,2013-08-03 17:39:00,
2013-08-03 12:44:00,91.0,77.5,30.03,NE,41,0.0,1.0,65,0.00,,,0.00,918.0,meteohub,2013-08-03 17:44:00,
2013-08-03 12:49:00,91.0,76.6,30.04,NE,56,0.0,1.0,63,0.00,,,0.00,911.0,meteohub,2013-08-03 17:49:00,
2013-08-03 12:54:00,90.3,77.0,30.03,NE,56,0.0,1.0,65,0.00,,,0.00,870.0,meteohub,2013-08-03 17:54:00,
2013-08-03 12:59:00,89.8,76.8,30.03,ENE,58,0.0,1.0,66,0.00,,,0.00,540.0,meteohub,2013-08-03 17:59:00,
2013-08-03 13:04:00,89.8,76.8,30.04,East,99,0.0,1.0,66,0.00,,,0.00,788.0,meteohub,2013-08-03 18:04:00,
2013-08-03 13:09:00,90.3,76.5,30.04,ESE,102,0.0,3.0,64,0.00,,,0.00,773.0,meteohub,2013-08-03 18:09:00,
2013-08-03 13:14:00,90.5,77.2,30.03,ESE,102,0.0,3.0,65,0.00,,,0.00,339.0,meteohub,2013-08-03 18:14:00,
2013-08-03 13:19:00,90.1,77.2,30.03,ESE,102,0.0,1.0,66,0.00,,,0.00,874.0,meteohub,2013-08-03 18:19:00,
2013-08-03 13:24:00,90.7,78.3,30.03,ESE,102,0.0,1.0,67,0.00,,,0.00,872.0,meteohub,2013-08-03 18:24:00,
2013-08-03 13:29:00,91.0,76.6,30.03,ESE,102,0.0,1.0,63,0.00,,,0.00,889.0,meteohub,2013-08-03 18:29:00,
2013-08-03 13:34:00,91.0,77.2,30.03,ESE,106,0.0,1.0,64,0.00,,,0.00,912.0,meteohub,2013-08-03 18:34:00,
2013-08-03 13:39:00,91.0,78.1,30.03,ESE,106,0.0,0.0,66,0.00,,,0.00,923.0,meteohub,2013-08-03 18:39:00,
2013-08-03 13:44:00,91.2,76.8,30.02,ESE,108,0.0,1.0,63,0.00,,,0.00,860.0,meteohub,2013-08-03 18:44:00,
2013-08-03 13:49:00,91.2,76.8,30.02,ESE,108,0.0,1.0,63,0.00,,,0.00,744.0,meteohub,2013-08-03 18:49:00,
2013-08-03 13:54:00,91.4,77.0,30.02,ESE,108,0.0,1.0,63,0.00,,,0.00,837.0,meteohub,2013-08-03 18:54:00,
2013-08-03 13:59:00,91.6,76.6,30.02,ESE,108,0.0,1.0,62,0.00,,,0.00,817.0,meteohub,2013-08-03 18:59:00,
2013-08-03 14:05:00,91.6,78.1,30.02,ESE,108,0.0,1.0,65,0.00,,,0.00,805.0,meteohub,2013-08-03 19:05:00,
2013-08-03 14:10:00,91.9,76.6,30.02,ESE,108,0.0,1.0,61,0.00,,,0.00,872.0,meteohub,2013-08-03 19:10:00,
2013-08-03 14:15:00,91.6,78.1,30.01,ESE,117,0.0,1.0,65,0.00,,,0.00,868.0,meteohub,2013-08-03 19:15:00,
2013-08-03 14:20:00,91.8,77.4,30.01,ESE,117,0.0,1.0,63,0.00,,,0.00,872.0,meteohub,2013-08-03 19:20:00,
2013-08-03 14:25:00,92.1,77.7,30.01,ESE,117,0.0,1.0,63,0.00,,,0.00,865.0,meteohub,2013-08-03 19:25:00,
2013-08-03 14:30:00,91.9,76.1,30.01,ESE,121,0.0,1.0,60,0.00,,,0.00,283.0,meteohub,2013-08-03 19:30:00,
2013-08-03 14:35:00,91.4,77.0,30.01,ESE,102,0.0,1.0,63,0.00,,,0.00,287.0,meteohub,2013-08-03 19:35:00,
2013-08-03 14:40:00,90.9,77.5,30.01,ESE,102,0.0,2.0,65,0.00,,,0.00,784.0,meteohub,2013-08-03 19:40:00,
2013-08-03 14:45:00,91.8,76.8,30.01,ENE,71,0.0,5.0,62,0.00,,,0.00,336.0,meteohub,2013-08-03 19:45:00,
2013-08-03 14:50:00,91.8,76.8,30.01,NE,42,0.0,5.0,62,0.00,,,0.00,353.0,meteohub,2013-08-03 19:50:00,
2013-08-03 14:55:00,91.9,76.6,30.00,ENE,64,0.0,5.0,61,0.00,,,0.00,297.0,meteohub,2013-08-03 19:55:00,
2013-08-03 15:00:00,91.4,76.1,30.01,ENE,64,0.0,3.0,61,0.00,,,0.00,454.0,meteohub,2013-08-03 20:00:00,
2013-08-03 15:05:00,91.6,76.3,30.01,ENE,64,0.0,3.0,61,0.00,,,0.00,557.0,meteohub,2013-08-03 20:05:00,
2013-08-03 15:10:00,92.1,75.7,30.01,ENE,64,1.0,2.0,59,0.00,,,0.00,513.0,meteohub,2013-08-03 20:10:00,
2013-08-03 15:15:00,91.9,77.0,30.00,ENE,64,0.0,2.0,62,0.00,,,0.00,540.0,meteohub,2013-08-03 20:15:00,
2013-08-03 15:20:00,92.1,76.3,30.00,ENE,59,0.0,3.0,60,0.00,,,0.00,348.0,meteohub,2013-08-03 20:20:00,
2013-08-03 15:25:00,91.8,75.4,30.00,ENE,59,0.0,3.0,59,0.00,,,0.00,309.0,meteohub,2013-08-03 20:25:00,
2013-08-03 15:30:00,91.8,76.5,30.00,ENE,59,0.0,3.0,61,0.00,,,0.00,302.0,meteohub,2013-08-03 20:30:00,
2013-08-03 15:35:00,91.4,76.1,29.99,ENE,59,1.0,2.0,61,0.00,,,0.00,304.0,meteohub,2013-08-03 20:35:00,
2013-08-03 15:40:00,91.2,75.9,29.99,ENE,59,0.0,2.0,61,0.00,,,0.00,278.0,meteohub,2013-08-03 20:40:00,
2013-08-03 15:45:00,91.4,76.1,29.99,ENE,59,0.0,2.0,61,0.00,,,0.00,288.0,meteohub,2013-08-03 20:45:00,
2013-08-03 15:50:00,91.0,76.3,29.99,ENE,59,0.0,2.0,62,0.00,,,0.00,318.0,meteohub,2013-08-03 20:50:00,
2013-08-03 15:55:00,91.0,76.3,29.99,ENE,60,0.0,1.0,62,0.00,,,0.00,283.0,meteohub,2013-08-03 20:55:00,
2013-08-03 16:00:00,91.9,76.1,29.99,NE,39,1.0,3.0,60,0.00,,,0.00,264.0,meteohub,2013-08-03 21:00:00,
2013-08-03 16:05:00,92.1,75.7,29.98,NE,38,0.0,4.0,59,0.00,,,0.00,253.0,meteohub,2013-08-03 21:05:00,
2013-08-03 16:10:00,91.8,75.9,29.99,NE,38,0.0,4.0,60,0.00,,,0.00,251.0,meteohub,2013-08-03 21:10:00,
2013-08-03 16:15:00,91.8,75.9,29.98,NE,38,0.0,2.0,60,0.00,,,0.00,246.0,meteohub,2013-08-03 21:15:00,
2013-08-03 16:20:00,91.6,75.7,29.98,NE,38,0.0,2.0,60,0.00,,,0.00,237.0,meteohub,2013-08-03 21:20:00,
2013-08-03 16:25:00,91.2,76.3,29.98,NE,38,0.0,2.0,62,0.00,,,0.00,230.0,meteohub,2013-08-03 21:25:00,
2013-08-03 16:30:00,91.8,75.9,29.98,NE,41,0.0,2.0,60,0.00,,,0.00,221.0,meteohub,2013-08-03 21:30:00,
2013-08-03 16:36:00,91.6,75.7,29.98,NE,42,0.0,2.0,60,0.00,,,0.00,214.0,meteohub,2013-08-03 21:36:00,
2013-08-03 16:40:00,91.0,78.1,29.98,NE,42,0.0,2.0,66,0.00,,,0.00,207.0,meteohub,2013-08-03 21:40:00,
2013-08-03 16:46:00,90.7,77.7,29.98,NE,41,0.0,1.0,66,0.00,,,0.00,197.0,meteohub,2013-08-03 21:46:00,
2013-08-03 16:51:00,90.9,75.6,29.98,NE,42,0.0,1.0,61,0.00,,,0.00,192.0,meteohub,2013-08-03 21:51:00,
2013-08-03 16:55:00,91.4,76.1,29.98,NE,42,1.0,1.0,61,0.00,,,0.00,190.0,meteohub,2013-08-03 21:55:00,
2013-08-03 17:01:00,90.9,78.4,29.98,NE,41,0.0,1.0,67,0.00,,,0.00,186.0,meteohub,2013-08-03 22:01:00,
2013-08-03 17:06:00,91.0,75.7,29.98,NE,53,0.0,2.0,61,0.00,,,0.00,179.0,meteohub,2013-08-03 22:06:00,
2013-08-03 17:11:00,91.4,77.0,29.98,NE,53,0.0,2.0,63,0.00,,,0.00,174.0,meteohub,2013-08-03 22:11:00,
2013-08-03 17:16:00,90.7,77.4,29.98,NE,53,0.0,2.0,65,0.00,,,0.00,167.0,meteohub,2013-08-03 22:16:00,
2013-08-03 17:21:00,90.1,77.2,29.98,NNE,30,0.0,1.0,66,0.00,,,0.00,162.0,meteohub,2013-08-03 22:21:00,
2013-08-03 17:25:00,90.5,76.6,29.98,NNE,29,0.0,3.0,64,0.00,,,0.00,162.0,meteohub,2013-08-03 22:25:00,
2013-08-03 17:31:00,90.3,77.0,29.99,NNE,29,0.0,3.0,65,0.00,,,0.00,156.0,meteohub,2013-08-03 22:31:00,
2013-08-03 17:36:00,90.7,76.3,29.99,NNE,20,1.0,1.0,63,0.00,,,0.00,146.0,meteohub,2013-08-03 22:36:00,
2013-08-03 17:41:00,90.5,77.2,29.99,NNE,20,1.0,4.0,65,0.00,,,0.00,137.0,meteohub,2013-08-03 22:41:00,
2013-08-03 17:46:00,90.1,76.8,29.99,NNE,20,0.0,4.0,65,0.00,,,0.00,123.0,meteohub,2013-08-03 22:46:00,
2013-08-03 17:51:00,89.8,75.9,29.98,NNE,19,0.0,2.0,64,0.00,,,0.00,120.0,meteohub,2013-08-03 22:51:00,
2013-08-03 17:56:00,89.4,76.6,29.98,NNE,19,0.0,1.0,66,0.00,,,0.00,116.0,meteohub,2013-08-03 22:56:00,
2013-08-03 18:01:00,88.7,77.7,29.98,NNE,20,0.0,1.0,70,0.00,,,0.00,111.0,meteohub,2013-08-03 23:01:00,
2013-08-03 18:06:00,88.2,78.8,29.98,NNE,20,0.0,1.0,74,0.00,,,0.00,109.0,meteohub,2013-08-03 23:06:00,
2013-08-03 18:11:00,88.0,77.4,29.98,NNE,20,0.0,1.0,71,0.00,,,0.00,107.0,meteohub,2013-08-03 23:11:00,
2013-08-03 18:16:00,88.3,75.9,29.98,NNE,20,0.0,1.0,67,0.00,,,0.00,104.0,meteohub,2013-08-03 23:16:00,
2013-08-03 18:21:00,88.9,77.9,29.98,NNE,19,0.0,1.0,70,0.00,,,0.00,93.0,meteohub,2013-08-03 23:21:00,
2013-08-03 18:26:00,88.9,77.9,29.98,NNE,20,0.0,1.0,70,0.00,,,0.00,90.0,meteohub,2013-08-03 23:26:00,
2013-08-03 18:31:00,89.2,78.1,29.98,NNE,13,1.0,1.0,70,0.00,,,0.00,88.0,meteohub,2013-08-03 23:31:00,
2013-08-03 18:36:00,89.4,78.3,29.98,NNE,26,0.0,3.0,70,0.00,,,0.00,88.0,meteohub,2013-08-03 23:36:00,
2013-08-03 18:41:00,89.4,77.9,29.98,North,0,2.0,3.0,69,0.00,,,0.00,81.0,meteohub,2013-08-03 23:41:00,
2013-08-03 18:46:00,89.8,78.3,29.98,NNE,19,1.0,4.0,69,0.00,,,0.00,77.0,meteohub,2013-08-03 23:46:00,
2013-08-03 18:51:00,89.8,78.3,29.98,North,356,0.0,5.0,69,0.00,,,0.00,74.0,meteohub,2013-08-03 23:51:00,
2013-08-03 18:56:00,89.4,77.9,29.98,WNW,298,1.0,6.0,69,0.00,,,0.00,70.0,meteohub,2013-08-03 23:56:00,
2013-08-03 19:01:00,89.2,78.1,29.98,North,354,2.0,6.0,70,0.00,,,0.00,65.0,meteohub,2013-08-04 00:01:00,
2013-08-03 19:07:00,89.1,78.1,29.98,NNW,346,1.0,6.0,70,0.00,,,0.00,60.0,meteohub,2013-08-04 00:07:00,
2013-08-03 19:12:00,89.1,78.1,29.98,NE,48,0.0,7.0,70,0.00,,,0.00,54.0,meteohub,2013-08-04 00:12:00,
2013-08-03 19:16:00,89.1,78.1,29.98,ENE,57,0.0,7.0,70,0.00,,,0.00,46.0,meteohub,2013-08-04 00:16:00,
2013-08-03 19:22:00,89.1,78.1,29.98,ENE,57,0.0,7.0,70,0.00,,,0.00,40.0,meteohub,2013-08-04 00:22:00,
2013-08-03 19:27:00,88.9,78.3,29.98,NW,304,3.0,4.0,71,0.00,,,0.00,32.0,meteohub,2013-08-04 00:27:00,
2013-08-03 19:32:00,88.5,77.9,29.99,North,6,1.0,4.0,71,0.00,,,0.00,25.0,meteohub,2013-08-04 00:32:00,
2013-08-03 19:37:00,88.3,78.1,29.99,NNE,23,2.0,4.0,72,0.00,,,0.00,19.0,meteohub,2013-08-04 00:37:00,
2013-08-03 19:42:00,88.3,77.7,29.99,NE,36,0.0,4.0,71,0.00,,,0.00,14.0,meteohub,2013-08-04 00:42:00,
2013-08-03 19:47:00,88.2,77.5,29.99,NE,42,1.0,4.0,71,0.00,,,0.00,12.0,meteohub,2013-08-04 00:47:00,
2013-08-03 19:52:00,88.0,77.4,29.99,NNE,15,2.0,6.0,71,0.00,,,0.00,7.0,meteohub,2013-08-04 00:52:00,
2013-08-03 19:57:00,88.0,77.4,29.99,NNE,29,0.0,6.0,71,0.00,,,0.00,5.0,meteohub,2013-08-04 00:57:00,
2013-08-03 20:02:00,87.8,77.7,29.99,NNE,23,0.0,5.0,72,0.00,,,0.00,0.0,meteohub,2013-08-04 01:02:00,
2013-08-03 20:07:00,87.6,77.5,29.99,NNE,29,0.0,5.0,72,0.00,,,0.00,0.0,meteohub,2013-08-04 01:07:00,
2013-08-03 20:12:00,87.4,77.7,29.99,NNE,18,0.0,3.0,73,0.00,,,0.00,0.0,meteohub,2013-08-04 01:12:00,
2013-08-03 20:18:00,87.3,77.5,29.99,NNE,19,0.0,3.0,73,0.00,,,0.00,0.0,meteohub,2013-08-04 01:18:00,
2013-08-03 20:23:00,87.1,77.7,29.99,NNE,19,0.0,3.0,74,0.00,,,0.00,0.0,meteohub,2013-08-04 01:23:00,
2013-08-03 20:28:00,87.1,77.7,30.00,NW,313,0.0,2.0,74,0.00,,,0.00,0.0,meteohub,2013-08-04 01:28:00,
2013-08-03 20:33:00,87.1,78.3,30.00,NNE,17,0.0,5.0,75,0.00,,,0.00,0.0,meteohub,2013-08-04 01:33:00,
2013-08-03 20:38:00,87.1,78.3,30.00,NE,56,0.0,5.0,75,0.00,,,0.00,0.0,meteohub,2013-08-04 01:38:00,
2013-08-03 20:43:00,87.1,78.3,30.00,NNE,32,0.0,5.0,75,0.00,,,0.00,0.0,meteohub,2013-08-04 01:43:00,
2013-08-03 20:48:00,87.1,78.3,30.01,NNE,33,0.0,5.0,75,0.00,,,0.00,0.0,meteohub,2013-08-04 01:48:00,
2013-08-03 20:53:00,86.9,78.1,30.01,NE,34,1.0,5.0,75,0.00,,,0.00,0.0,meteohub,2013-08-04 01:53:00,
2013-08-03 20:58:00,86.7,77.9,30.01,NE,35,0.0,4.0,75,0.00,,,0.00,0.0,meteohub,2013-08-04 01:58:00,
2013-08-03 21:03:00,86.7,77.4,30.01,NE,36,0.0,2.0,74,0.00,,,0.00,0.0,meteohub,2013-08-04 02:03:00,
2013-08-03 21:08:00,86.5,77.7,30.01,NNE,31,0.0,3.0,75,0.00,,,0.00,0.0,meteohub,2013-08-04 02:08:00,
2013-08-03 21:13:00,86.4,77.5,30.01,ENE,63,0.0,3.0,75,0.00,,,0.00,0.0,meteohub,2013-08-04 02:13:00,
2013-08-03 21:18:00,86.2,77.4,30.01,NE,42,0.0,4.0,75,0.00,,,0.00,0.0,meteohub,2013-08-04 02:18:00,
2013-08-03 21:23:00,86.0,77.5,30.01,NE,37,0.0,4.0,76,0.00,,,0.00,0.0,meteohub,2013-08-04 02:23:00,
2013-08-03 21:28:00,85.8,77.4,30.01,NE,38,0.0,4.0,76,0.00,,,0.00,0.0,meteohub,2013-08-04 02:28:00,
2013-08-03 21:33:00,85.8,77.4,30.01,NE,38,0.0,4.0,76,0.00,,,0.00,0.0,meteohub,2013-08-04 02:33:00,
2013-08-03 21:38:00,85.8,77.4,30.01,NE,38,0.0,4.0,76,0.00,,,0.00,0.0,meteohub,2013-08-04 02:38:00,
2013-08-03 21:43:00,85.6,77.2,30.02,NE,34,0.0,4.0,76,0.00,,,0.00,0.0,meteohub,2013-08-04 02:43:00,
2013-08-03 21:48:00,85.6,77.2,30.02,NE,52,1.0,1.0,76,0.00,,,0.00,0.0,meteohub,2013-08-04 02:48:00,
2013-08-03 21:53:00,85.6,77.2,30.02,NE,34,0.0,1.0,76,0.00,,,0.00,0.0,meteohub,2013-08-04 02:53:00,
2013-08-03 21:58:00,85.5,77.4,30.02,ENE,63,0.0,3.0,77,0.00,,,0.00,0.0,meteohub,2013-08-04 02:58:00,
2013-08-03 22:03:00,85.3,77.2,30.02,NE,47,4.0,4.0,77,0.00,,,0.00,0.0,meteohub,2013-08-04 03:03:00,
2013-08-03 22:08:00,85.3,77.7,30.02,NE,42,0.0,4.0,78,0.00,,,0.00,0.0,meteohub,2013-08-04 03:08:00,
2013-08-03 22:13:00,85.1,77.5,30.02,NE,43,0.0,5.0,78,0.00,,,0.00,0.0,meteohub,2013-08-04 03:13:00,
2013-08-03 22:18:00,84.9,77.4,30.02,NE,49,0.0,5.0,78,0.00,,,0.00,0.0,meteohub,2013-08-04 03:18:00,
2013-08-03 22:23:00,84.7,77.2,30.02,NE,49,0.0,1.0,78,0.00,,,0.00,0.0,meteohub,2013-08-04 03:23:00,
2013-08-03 22:28:00,84.7,77.5,30.03,NNE,27,0.0,1.0,79,0.00,,,0.00,0.0,meteohub,2013-08-04 03:28:00,
2013-08-03 22:33:00,84.6,77.4,30.03,NE,55,0.0,2.0,79,0.00,,,0.00,0.0,meteohub,2013-08-04 03:33:00,
2013-08-03 22:38:00,84.4,77.5,30.02,NE,48,0.0,2.0,80,0.00,,,0.00,0.0,meteohub,2013-08-04 03:38:00,
2013-08-03 22:43:00,84.2,77.4,30.03,NE,40,0.0,2.0,80,0.00,,,0.00,0.0,meteohub,2013-08-04 03:43:00,
2013-08-03 22:48:00,84.0,77.2,30.03,NE,44,0.0,3.0,80,0.00,,,0.00,0.0,meteohub,2013-08-04 03:48:00,
2013-08-03 22:53:00,83.8,77.4,30.03,NE,46,0.0,3.0,81,0.00,,,0.00,0.0,meteohub,2013-08-04 03:53:00,
2013-08-03 22:58:00,83.7,77.2,30.03,NE,52,0.0,3.0,81,0.00,,,0.00,0.0,meteohub,2013-08-04 03:58:00,
2013-08-03 23:01:00,83.7,77.5,30.03,NE,52,0.0,2.0,82,0.00,,,0.00,0.0,meteohub,2013-08-04 04:01:00,
2013-08-03 23:02:00,83.7,77.5,30.03,NE,52,0.0,2.0,82,0.00,,,0.00,0.0,meteohub,2013-08-04 04:02:00,
2013-08-03 23:06:00,83.5,77.4,30.03,NE,52,0.0,2.0,82,0.00,,,0.00,0.0,meteohub,2013-08-04 04:06:00,
2013-08-03 23:12:00,83.1,77.4,30.03,ENE,69,0.0,1.0,83,0.00,,,0.00,0.0,meteohub,2013-08-04 04:12:00,
2013-08-03 23:17:00,82.9,77.2,30.03,ENE,69,0.0,3.0,83,0.00,,,0.00,0.0,meteohub,2013-08-04 04:17:00,
2013-08-03 23:22:00,82.9,77.2,30.03,ENE,69,0.0,3.0,83,0.00,,,0.00,0.0,meteohub,2013-08-04 04:22:00,
2013-08-03 23:27:00,82.8,77.4,30.03,ENE,69,0.0,1.0,84,0.00,,,0.00,0.0,meteohub,2013-08-04 04:27:00,
2013-08-03 23:32:00,82.6,77.2,30.03,ENE,69,0.0,1.0,84,0.00,,,0.00,0.0,meteohub,2013-08-04 04:32:00,
2013-08-03 23:37:00,82.2,76.8,30.03,ENE,69,0.0,0.0,84,0.00,,,0.00,0.0,meteohub,2013-08-04 04:37:00,
2013-08-03 23:42:00,82.2,76.8,30.03,ENE,69,0.0,0.0,84,0.00,,,0.00,0.0,meteohub,2013-08-04 04:42:00,
2013-08-03 23:47:00,82.0,77.0,30.03,ENE,69,0.0,0.0,85,0.00,,,0.00,0.0,meteohub,2013-08-04 04:47:00,
2013-08-03 23:52:00,82.0,77.0,30.03,ENE,69,0.0,1.0,85,0.00,,,0.00,0.0,meteohub,2013-08-04 04:52:00,
2013-08-03 23:57:00,82.0,77.0,30.03,ENE,69,0.0,1.0,85,0.00,,,0.00,0.0,meteohub,2013-08-04 04:57:00,